Time;durP1;ratioP1;P1;durP2;ratioP2;P2;SDS_P1;SDS_P2;PMS_P1;PMS_P2;Temp;Humidity;BMP_temperature;BMP_pressure;BME280_temperature;BME280_humidity;BME280_pressure;Samples;Min_cycle;Max_cycle;Signal;HPM_P1;HPM_P2
2023/04/02 00:01:45;;;;;;;8.05;7.35;;;14.20;98.50;;;;;;5034234;28;20486;-70
2023/04/02 00:04:21;;;;;;;8.60;7.82;;;14.10;98.70;;;;;;5034272;28;20029;-71
2023/04/02 00:07:14;;;;;;;9.15;8.25;;;14.10;98.80;;;;;;5034739;28;20041;-69
2023/04/02 00:09:39;;;;;;;8.65;7.85;;;14.10;98.60;;;;;;5029381;28;20037;-71
2023/04/02 00:12:17;;;;;;;8.13;7.32;;;14.10;98.40;;;;;;5034147;28;20033;-73
2023/04/02 00:14:53;;;;;;;8.98;8.07;;;14.00;98.40;;;;;;5034111;28;20394;-72
2023/04/02 00:17:22;;;;;;;8.80;7.90;;;14.00;98.50;;;;;;5033691;28;20390;-73
2023/04/02 00:19:56;;;;;;;9.25;8.20;;;14.00;98.50;;;;;;5033505;28;20049;-73
2023/04/02 00:22:33;;;;;;;9.30;8.13;;;14.00;98.70;;;;;;5033893;28;20029;-72
2023/04/02 00:25:06;;;;;;;9.05;8.25;;;14.00;98.50;;;;;;5033994;28;20030;-73
2023/04/02 00:27:32;;;;;;;9.07;8.27;;;14.00;98.50;;;;;;5032751;28;20086;-72
2023/04/02 00:29:58;;;;;;;9.85;8.95;;;14.00;98.60;;;;;;5033573;28;20041;-71
2023/04/02 00:32:26;;;;;;;9.18;8.38;;;14.00;98.50;;;;;;5034010;28;20029;-72
2023/04/02 00:34:53;;;;;;;9.27;8.38;;;14.00;98.30;;;;;;5033557;28;20108;-71
2023/04/02 00:37:22;;;;;;;8.55;7.82;;;13.90;97.90;;;;;;5034141;28;20497;-72
2023/04/02 00:39:51;;;;;;;8.48;7.32;;;14.00;97.80;;;;;;5018820;28;20110;-72
2023/04/02 00:42:18;;;;;;;8.65;7.85;;;13.90;97.90;;;;;;5013719;28;20420;-71
2023/04/02 00:44:45;;;;;;;10.27;8.70;;;13.90;98.00;;;;;;5013299;28;20025;-72
2023/04/02 00:47:32;;;;;;;9.70;8.55;;;13.90;98.00;;;;;;5013299;28;20379;-70
2023/04/02 00:50:05;;;;;;;9.38;8.48;;;13.90;97.90;;;;;;5013724;28;20042;-72
2023/04/02 00:52:32;;;;;;;8.55;7.38;;;13.80;98.10;;;;;;5013344;28;20021;-72
2023/04/02 00:55:46;;;;;;;7.85;7.15;;;13.80;98.50;;;;;;5013739;28;20112;-70
2023/04/02 00:58:34;;;;;;;7.82;7.13;;;13.80;98.40;;;;;;4972274;28;20038;-71
2023/04/02 01:01:00;;;;;;;8.30;7.60;;;13.80;98.00;;;;;;5010988;28;20120;-72
2023/04/02 01:03:37;;;;;;;8.38;7.63;;;13.80;97.90;;;;;;5013265;28;20486;-70
2023/04/02 01:06:09;;;;;;;8.35;7.57;;;13.80;98.10;;;;;;5013341;28;20030;-71
2023/04/02 01:08:52;;;;;;;8.35;7.50;;;13.70;98.10;;;;;;5013528;28;20034;-72
2023/04/02 01:11:42;;;;;;;8.38;7.57;;;13.70;97.80;;;;;;5013523;28;20038;-73
2023/04/02 01:14:36;;;;;;;9.05;8.25;;;13.70;97.80;;;;;;5013431;28;20014;-70
2023/04/02 01:17:17;;;;;;;9.43;8.52;;;13.70;97.40;;;;;;5012709;28;20026;-71
2023/04/02 01:20:13;;;;;;;8.93;8.10;;;13.70;97.50;;;;;;5013184;28;20041;-70
2023/04/02 01:22:40;;;;;;;8.63;7.70;;;13.70;97.80;;;;;;5013176;28;20030;-70
2023/04/02 01:25:07;;;;;;;8.25;7.55;;;13.60;97.70;;;;;;5013061;28;20902;-70
2023/04/02 01:27:46;;;;;;;8.13;7.43;;;13.60;97.60;;;;;;5013204;28;20453;-70
2023/04/02 01:30:13;;;;;;;7.38;6.70;;;13.60;97.60;;;;;;5012453;28;20045;-72
2023/04/02 01:32:41;;;;;;;7.80;7.10;;;13.70;97.40;;;;;;5012671;28;20487;-70
2023/04/02 01:35:08;;;;;;;7.30;6.60;;;13.60;97.10;;;;;;5012961;28;20026;-70
2023/04/02 01:37:57;;;;;;;8.40;7.65;;;13.60;97.40;;;;;;5012992;28;20030;-70
2023/04/02 01:40:57;;;;;;;9.02;7.38;;;13.60;97.00;;;;;;5013032;28;20026;-70
2023/04/02 01:43:51;;;;;;;8.18;7.38;;;13.50;97.30;;;;;;5013003;28;20024;-70
2023/04/02 01:46:32;;;;;;;7.72;7.03;;;13.50;97.40;;;;;;5012362;28;20029;-72
2023/04/02 01:49:01;;;;;;;8.88;8.05;;;13.50;97.40;;;;;;5012846;28;20108;-70
2023/04/02 01:51:38;;;;;;;7.68;6.97;;;13.50;97.30;;;;;;5012810;28;20036;-70
2023/04/02 01:54:05;;;;;;;8.75;7.95;;;13.50;97.60;;;;;;5012615;28;20112;-72
2023/04/02 01:56:30;;;;;;;8.98;8.07;;;13.40;97.40;;;;;;5012865;28;20113;-70
2023/04/02 01:58:58;;;;;;;8.07;7.38;;;13.50;97.60;;;;;;5012618;28;20124;-70
2023/04/02 02:01:30;;;;;;;8.48;7.50;;;13.50;97.50;;;;;;5012673;28;20014;-70
2023/04/02 02:03:56;;;;;;;;;;;13.50;97.40;;;;;;5013167;28;20026;-70
2023/04/02 02:06:22;;;;;;;6.90;6.30;;;13.40;97.50;;;;;;5012538;28;19940;-70
2023/04/02 02:08:52;;;;;;;8.23;7.53;;;13.40;97.80;;;;;;5012709;28;20044;-69
2023/04/02 02:11:21;;;;;;;8.80;8.05;;;13.30;97.90;;;;;;5012910;28;20044;-70
2023/04/02 02:13:54;;;;;;;8.15;7.45;;;13.40;97.70;;;;;;5012511;28;20029;-70
2023/04/02 02:16:20;;;;;;;7.68;6.97;;;13.40;97.60;;;;;;5012248;28;20134;-71
2023/04/02 02:18:50;;;;;;;8.45;7.55;;;13.40;97.70;;;;;;5012440;28;20149;-70
2023/04/02 02:21:26;;;;;;;7.18;6.57;;;13.40;97.70;;;;;;5012800;28;20030;-70
2023/04/02 02:23:53;;;;;;;7.50;6.85;;;13.40;97.70;;;;;;5012564;28;20033;-73
2023/04/02 02:26:22;;;;;;;7.80;7.10;;;13.30;97.70;;;;;;5012343;28;20105;-70
2023/04/02 02:28:51;;;;;;;7.78;6.63;;;13.40;97.60;;;;;;5012248;28;20120;-70
2023/04/02 02:31:21;;;;;;;7.22;6.53;;;13.30;97.50;;;;;;5012510;28;20389;-70
2023/04/02 02:33:53;;;;;;;8.68;7.78;;;13.30;97.70;;;;;;5012580;28;20498;-70
2023/04/02 02:36:28;;;;;;;9.00;7.68;;;13.30;97.50;;;;;;5012294;28;20027;-71
2023/04/02 02:39:02;;;;;;;10.02;8.73;;;13.30;97.50;;;;;;5012573;28;20029;-71
2023/04/02 02:41:55;;;;;;;8.73;7.93;;;13.30;97.40;;;;;;5015523;28;20022;-70
2023/04/02 02:44:27;;;;;;;10.63;8.48;;;13.30;97.70;;;;;;5016027;28;20037;-70
2023/04/02 02:46:55;;;;;;;;;;;13.30;97.40;;;;;;5016402;28;20132;-70
2023/04/02 02:49:27;;;;;;;9.75;8.35;;;13.30;97.30;;;;;;5015939;28;19961;-69
2023/04/02 02:52:16;;;;;;;9.50;8.10;;;13.20;97.40;;;;;;5016056;28;20036;-69
2023/04/02 02:55:03;;;;;;;10.30;8.43;;;13.20;97.30;;;;;;5015822;28;20026;-71
2023/04/02 02:57:32;;;;;;;8.95;7.70;;;13.20;97.40;;;;;;5015964;28;20091;-71
2023/04/02 03:00:00;;;;;;;8.75;7.85;;;13.20;97.10;;;;;;5015544;28;20022;-70
2023/04/02 03:02:27;;;;;;;8.63;7.82;;;13.20;97.20;;;;;;5015741;28;20040;-69
2023/04/02 03:04:54;;;;;;;9.63;8.63;;;13.10;97.50;;;;;;5015638;28;20029;-69
2023/04/02 03:07:24;;;;;;;8.07;7.28;;;13.10;97.30;;;;;;5015575;28;20024;-71
2023/04/02 03:10:15;;;;;;;8.98;8.02;;;13.10;97.40;;;;;;5015496;28;20026;-71
2023/04/02 03:13:12;;;;;;;9.10;8.20;;;13.10;97.50;;;;;;5015400;28;20105;-70
2023/04/02 03:15:48;;;;;;;9.52;8.20;;;13.10;97.20;;;;;;5030789;28;20025;-69
2023/04/02 03:18:36;;;;;;;9.65;7.53;;;13.10;97.30;;;;;;5015222;28;20026;-68
2023/04/02 03:21:18;;;;;;;9.73;8.73;;;13.00;97.40;;;;;;5015575;28;20042;-70
2023/04/02 03:23:52;;;;;;;9.45;8.10;;;13.10;97.30;;;;;;5014443;28;20026;-69
2023/04/02 03:26:41;;;;;;;10.75;9.07;;;13.00;97.30;;;;;;5014894;28;20483;-69
2023/04/02 03:29:26;;;;;;;9.98;8.52;;;13.00;97.70;;;;;;5015203;28;20521;-70
2023/04/02 03:31:55;;;;;;;9.82;8.77;;;13.00;97.40;;;;;;5015096;28;20106;-71
2023/04/02 03:34:31;;;;;;;10.25;9.18;;;13.00;97.50;;;;;;5015273;28;20029;-70
2023/04/02 03:37:20;;;;;;;10.55;8.82;;;13.00;97.40;;;;;;5015156;28;20022;-70
2023/04/02 03:40:10;;;;;;;11.27;9.77;;;13.00;97.60;;;;;;5014918;28;20386;-68
2023/04/02 03:42:43;;;;;;;12.77;10.35;;;13.00;97.50;;;;;;5003683;28;20045;-70
2023/04/02 03:45:30;;;;;;;12.00;10.80;;;13.00;97.20;;;;;;5014915;28;20018;-70
2023/04/02 03:48:09;;;;;;;11.80;9.85;;;13.00;97.20;;;;;;5016897;28;20104;-69
2023/04/02 03:50:54;;;;;;;11.75;9.20;;;13.00;97.10;;;;;;5033017;28;20072;-69
2023/04/02 03:53:23;;;;;;;14.35;10.70;;;12.90;97.20;;;;;;5032065;28;20040;-70
2023/04/02 03:55:50;;;;;;;16.33;10.55;;;13.00;96.90;;;;;;5031487;28;20025;-69
2023/04/02 03:58:37;;;;;;;13.27;10.43;;;12.80;97.20;;;;;;5034338;28;20079;-72
2023/04/02 04:01:24;;;;;;;14.27;10.73;;;12.90;97.20;;;;;;5034121;28;20029;-69
2023/04/02 04:03:53;;;;;;;11.75;10.30;;;12.90;96.90;;;;;;5034562;28;20029;-69
2023/04/02 04:06:27;;;;;;;13.57;10.35;;;12.90;97.10;;;;;;5034487;28;20056;-69
2023/04/02 04:09:25;;;;;;;11.90;10.20;;;12.90;96.90;;;;;;5034280;28;20398;-68
2023/04/02 04:12:04;;;;;;;11.45;10.25;;;12.90;97.00;;;;;;5033896;28;20539;-71
2023/04/02 04:14:33;;;;;;;13.65;12.10;;;12.80;96.80;;;;;;5034246;28;20104;-69
2023/04/02 04:17:14;;;;;;;12.65;11.18;;;12.80;96.90;;;;;;5034026;28;20029;-71
2023/04/02 04:19:45;;;;;;;14.73;11.52;;;12.80;97.30;;;;;;5032764;28;20502;-70
2023/04/02 04:22:19;;;;;;;12.50;10.85;;;12.80;97.00;;;;;;5029410;28;20406;-70
2023/04/02 04:24:46;;;;;;;13.88;10.55;;;12.80;96.70;;;;;;5024281;28;20462;-70
2023/04/02 04:27:23;;;;;;;13.48;9.98;;;12.70;96.60;;;;;;5022464;28;20544;-71
2023/04/02 04:30:02;;;;;;;12.85;10.55;;;12.70;97.00;;;;;;5023414;28;20033;-70
2023/04/02 04:32:33;;;;;;;13.63;10.27;;;12.70;96.70;;;;;;5033521;28;20406;-68
2023/04/02 04:35:18;;;;;;;11.00;9.27;;;12.70;96.90;;;;;;5032976;28;20130;-69
2023/04/02 04:37:48;;;;;;;13.30;11.02;;;12.60;97.30;;;;;;5032729;28;20021;-69
2023/04/02 04:40:22;;;;;;;12.52;10.65;;;12.70;96.80;;;;;;5032806;28;20546;-69
2023/04/02 04:42:51;;;;;;;11.82;10.48;;;12.60;96.90;;;;;;5028609;28;20032;-70
2023/04/02 04:45:38;;;;;;;12.77;11.45;;;12.60;97.30;;;;;;5031368;28;20018;-68
2023/04/02 04:48:19;;;;;;;12.90;11.38;;;12.70;96.90;;;;;;5031414;28;20032;-68
2023/04/02 04:50:53;;;;;;;17.05;11.98;;;12.60;97.20;;;;;;5026681;28;20037;-70
2023/04/02 04:53:24;;;;;;;13.93;10.50;;;12.60;97.20;;;;;;5026729;28;20232;-70
2023/04/02 04:55:54;;;;;;;15.10;12.13;;;12.60;97.60;;;;;;5042273;28;20040;-69
2023/04/02 04:58:31;;;;;;;12.63;11.32;;;12.60;97.10;;;;;;5033102;28;20063;-69
2023/04/02 05:01:04;;;;;;;12.68;10.40;;;12.60;96.90;;;;;;5031386;28;20503;-69
2023/04/02 05:03:38;;;;;;;13.10;10.98;;;12.60;96.90;;;;;;5029669;28;20021;-69
2023/04/02 05:06:38;;;;;;;14.98;10.23;;;12.60;96.30;;;;;;5032094;28;20493;-69
2023/04/02 05:09:30;;;;;;;12.63;11.27;;;12.60;96.30;;;;;;5027235;28;20136;-68
2023/04/02 05:12:16;;;;;;;12.27;10.65;;;12.50;96.20;;;;;;5029796;28;20142;-70
2023/04/02 05:14:51;;;;;;;11.93;10.73;;;12.50;96.50;;;;;;5025519;28;20029;-72
2023/04/02 05:17:25;;;;;;;12.85;11.48;;;12.40;96.70;;;;;;5032854;28;20029;-69
2023/04/02 05:19:55;;;;;;;12.68;10.45;;;12.50;96.50;;;;;;5031894;28;20025;-69
2023/04/02 05:22:33;;;;;;;13.90;11.13;;;12.40;97.10;;;;;;5030779;28;20022;-72
2023/04/02 05:25:18;;;;;;;13.75;12.23;;;12.40;96.70;;;;;;5027871;28;20090;-71
2023/04/02 05:27:51;;;;;;;15.05;12.40;;;12.50;96.50;;;;;;5028779;28;20067;-70
2023/04/02 05:30:20;;;;;;;14.07;12.13;;;12.40;96.70;;;;;;5032303;28;20042;-70
2023/04/02 05:32:57;;;;;;;14.07;11.98;;;12.40;96.70;;;;;;5029757;28;20117;-70
2023/04/02 05:35:30;;;;;;;13.98;11.95;;;12.40;97.10;;;;;;5031808;28;20037;-72
2023/04/02 05:37:56;;;;;;;12.02;10.82;;;12.40;96.70;;;;;;5029566;28;20059;-69
2023/04/02 05:40:30;;;;;;;13.48;11.85;;;12.40;96.60;;;;;;5032333;28;20025;-70
2023/04/02 05:42:57;;;;;;;11.75;9.75;;;12.40;96.40;;;;;;5022112;28;20059;-69
2023/04/02 05:45:38;;;;;;;11.63;10.43;;;12.40;96.60;;;;;;5032216;28;20128;-71
2023/04/02 05:48:17;;;;;;;11.98;10.77;;;12.30;96.10;;;;;;5031957;28;20159;-70
2023/04/02 05:50:47;;;;;;;11.10;9.63;;;12.30;96.00;;;;;;5032395;28;20042;-70
2023/04/02 05:53:28;;;;;;;12.68;10.80;;;12.20;96.80;;;;;;5032287;28;20041;-69
2023/04/02 05:55:56;;;;;;;11.70;9.55;;;12.30;96.50;;;;;;5032126;28;20079;-70
2023/04/02 05:58:24;;;;;;;13.70;11.70;;;12.20;96.30;;;;;;5032388;28;20108;-71
2023/04/02 06:01:02;;;;;;;14.88;11.77;;;12.20;96.50;;;;;;5032523;28;20029;-70
2023/04/02 06:03:48;;;;;;;14.63;11.30;;;12.20;96.40;;;;;;5032320;28;20057;-72
2023/04/02 06:06:37;;;;;;;14.93;11.23;;;12.20;96.30;;;;;;5031887;28;20021;-69
2023/04/02 06:09:36;;;;;;;12.48;10.95;;;12.20;96.40;;;;;;5031952;28;20046;-72
2023/04/02 06:12:21;;;;;;;13.18;11.10;;;12.20;96.50;;;;;;5011553;28;20465;-71
2023/04/02 06:14:47;;;;;;;14.18;10.75;;;12.20;96.60;;;;;;5032659;28;20022;-69
2023/04/02 06:17:18;;;;;;;11.57;10.40;;;12.20;96.80;;;;;;5036470;28;20025;-70
2023/04/02 06:19:44;;;;;;;12.48;10.00;;;12.20;96.40;;;;;;5035902;28;20034;-69
2023/04/02 06:22:35;;;;;;;12.45;9.93;;;12.20;96.60;;;;;;5036120;28;20038;-70
2023/04/02 06:25:26;;;;;;;12.38;10.02;;;12.20;96.60;;;;;;5029082;28;20033;-69
2023/04/02 06:27:55;;;;;;;14.00;10.55;;;12.20;96.70;;;;;;5036400;28;20018;-70
2023/04/02 06:30:30;;;;;;;12.90;10.00;;;12.20;96.70;;;;;;5036104;28;20104;-69
2023/04/02 06:32:56;;;;;;;14.70;10.48;;;12.10;97.10;;;;;;5036119;28;20432;-70
2023/04/02 06:35:21;;;;;;;15.30;11.68;;;12.10;96.50;;;;;;5036165;28;20081;-72
2023/04/02 06:37:52;;;;;;;15.10;10.85;;;12.10;96.80;;;;;;5028279;28;20498;-72
2023/04/02 06:40:28;;;;;;;15.38;11.60;;;12.10;96.60;;;;;;5034306;28;20022;-72
2023/04/02 06:42:58;;;;;;;11.65;9.52;;;12.10;96.50;;;;;;5034186;28;20075;-70
2023/04/02 06:45:29;;;;;;;11.63;10.40;;;12.10;96.70;;;;;;5032627;28;20331;-70
2023/04/02 06:47:58;;;;;;;11.13;9.45;;;12.10;96.60;;;;;;5035605;28;20028;-71
2023/04/02 06:50:25;;;;;;;12.88;9.15;;;12.10;96.70;;;;;;5030582;28;20037;-70
2023/04/02 06:52:55;;;;;;;10.93;9.82;;;12.10;96.40;;;;;;5035579;28;20025;-69
2023/04/02 06:55:23;;;;;;;10.52;8.95;;;12.10;96.50;;;;;;5035114;28;20036;-70
2023/04/02 06:57:49;;;;;;;9.25;8.25;;;12.10;96.00;;;;;;5035362;28;20021;-69
2023/04/02 07:00:35;;;;;;;10.15;8.43;;;12.00;96.40;;;;;;5034832;28;20037;-72
2023/04/02 07:03:05;;;;;;;12.43;8.30;;;12.00;96.40;;;;;;5035454;28;20025;-70
2023/04/02 07:05:30;;;;;;;9.82;7.97;;;12.00;96.20;;;;;;5031914;28;20026;-71
2023/04/02 07:07:56;;;;;;;9.98;8.93;;;12.00;96.10;;;;;;5030457;28;20502;-72
2023/04/02 07:10:22;;;;;;;12.23;10.38;;;12.00;96.10;;;;;;5027251;28;20526;-71
2023/04/02 07:12:47;;;;;;;11.45;10.23;;;12.00;96.10;;;;;;5024420;28;20029;-69
2023/04/02 07:15:18;;;;;;;11.38;8.98;;;12.00;95.80;;;;;;5024513;28;20045;-70
2023/04/02 07:17:46;;;;;;;10.73;9.48;;;11.90;96.10;;;;;;5032621;28;20022;-69
2023/04/02 07:20:35;;;;;;;12.70;10.50;;;11.90;96.00;;;;;;5032627;28;20030;-70
2023/04/02 07:23:01;;;;;;;14.93;11.88;;;11.90;96.10;;;;;;5031830;28;20479;-70
2023/04/02 07:25:26;;;;;;;11.82;10.38;;;11.80;96.20;;;;;;5035016;28;20056;-72
2023/04/02 07:27:53;;;;;;;11.32;9.82;;;11.90;96.40;;;;;;5028901;28;20501;-69
2023/04/02 07:30:19;;;;;;;13.98;10.10;;;11.90;96.30;;;;;;5023663;28;20135;-69
2023/04/02 07:32:45;;;;;;;11.35;10.13;;;11.90;96.00;;;;;;5028542;28;20105;-69
2023/04/02 07:35:11;;;;;;;10.88;8.77;;;11.80;95.80;;;;;;5032039;28;20108;-72
2023/04/02 07:37:37;;;;;;;12.85;10.82;;;11.70;96.20;;;;;;5026813;28;20017;-69
2023/04/02 07:40:15;;;;;;;10.73;9.55;;;11.70;96.00;;;;;;5029185;28;20129;-69
2023/04/02 07:42:41;;;;;;;11.55;10.02;;;11.70;96.00;;;;;;5016233;28;20018;-69
2023/04/02 07:45:07;;;;;;;11.05;9.80;;;11.80;95.70;;;;;;5028313;28;20041;-69
2023/04/02 07:47:33;;;;;;;10.85;9.68;;;11.70;95.90;;;;;;5027993;28;20021;-69
2023/04/02 07:49:58;;;;;;;10.23;9.02;;;11.70;96.10;;;;;;5034070;28;20060;-69
2023/04/02 07:52:24;;;;;;;9.90;8.90;;;11.80;96.00;;;;;;5034343;28;20028;-72
2023/04/02 07:54:50;;;;;;;11.48;8.90;;;11.80;95.80;;;;;;5023422;28;20028;-69
2023/04/02 07:57:15;;;;;;;11.05;9.13;;;11.70;96.00;;;;;;5027466;28;20455;-69
2023/04/02 07:59:41;;;;;;;11.02;9.93;;;11.80;95.90;;;;;;5030246;28;20033;-68
2023/04/02 08:02:18;;;;;;;10.32;8.57;;;11.80;95.60;;;;;;5015826;28;20033;-69
2023/04/02 08:04:43;;;;;;;9.90;8.82;;;11.80;96.00;;;;;;5027057;28;20025;-71
2023/04/02 08:07:09;;;;;;;9.60;8.52;;;11.80;96.10;;;;;;5027356;28;20031;-73
2023/04/02 08:09:35;;;;;;;10.68;8.80;;;11.80;96.10;;;;;;5033052;28;20029;-73
2023/04/02 08:12:01;;;;;;;9.63;7.80;;;11.80;95.60;;;;;;5023583;28;20037;-70
2023/04/02 08:14:26;;;;;;;9.52;8.48;;;11.80;96.20;;;;;;5018758;28;20032;-69
2023/04/02 08:16:54;;;;;;;10.38;9.27;;;11.80;96.40;;;;;;5013082;28;20477;-71
2023/04/02 08:19:20;;;;;;;11.05;7.53;;;11.80;96.00;;;;;;5014797;28;20064;-74
2023/04/02 08:21:49;;;;;;;10.55;7.60;;;11.80;95.90;;;;;;5027225;28;20117;-70
2023/04/02 08:24:17;;;;;;;9.52;8.52;;;11.80;95.60;;;;;;5026241;28;20444;-73
2023/04/02 08:26:44;;;;;;;8.70;7.90;;;11.80;95.70;;;;;;5026287;28;20532;-70
2023/04/02 08:29:10;;;;;;;8.93;8.07;;;11.90;95.60;;;;;;5027756;28;20029;-70
2023/04/02 08:31:36;;;;;;;8.27;6.53;;;11.90;95.50;;;;;;5022586;28;20026;-73
2023/04/02 08:34:02;;;;;;;8.57;7.55;;;11.90;95.50;;;;;;5021475;28;20033;-68
2023/04/02 08:36:35;;;;;;;8.75;7.50;;;11.90;95.20;;;;;;5026120;28;20087;-71
2023/04/02 08:39:01;;;;;;;7.97;7.03;;;11.90;95.00;;;;;;5021677;28;20018;-70
2023/04/02 08:41:27;;;;;;;9.02;7.20;;;11.80;95.10;;;;;;5017375;28;20033;-68
2023/04/02 08:44:11;;;;;;;10.07;7.63;;;11.80;95.10;;;;;;5024803;28;20042;-71
2023/04/02 08:46:54;;;;;;;8.40;7.38;;;11.80;94.80;;;;;;5027330;28;20032;-69
2023/04/02 08:49:31;;;;;;;9.55;7.32;;;11.80;94.70;;;;;;5023169;28;20075;-70
2023/04/02 08:51:56;;;;;;;10.93;8.27;;;11.80;94.90;;;;;;5015036;28;20026;-68
2023/04/02 08:54:31;;;;;;;9.40;8.43;;;11.80;94.50;;;;;;5023314;28;20033;-66
2023/04/02 08:57:10;;;;;;;9.27;8.32;;;11.80;94.50;;;;;;5022567;28;20025;-68
2023/04/02 08:59:41;;;;;;;10.35;7.57;;;11.80;95.20;;;;;;5028855;28;20501;-68
2023/04/02 09:02:27;;;;;;;9.07;7.40;;;11.80;94.50;;;;;;5025717;28;20038;-68
2023/04/02 09:04:54;;;;;;;9.38;7.30;;;11.80;94.20;;;;;;5030259;28;20033;-71
2023/04/02 09:07:20;;;;;;;10.60;8.38;;;11.80;94.10;;;;;;5025599;28;20124;-71
2023/04/02 09:09:48;;;;;;;9.23;6.65;;;11.80;94.20;;;;;;5024305;28;20473;-73
2023/04/02 09:12:26;;;;;;;9.02;8.07;;;11.80;94.70;;;;;;5032179;28;20124;-69
2023/04/02 09:15:21;;;;;;;11.43;7.70;;;11.80;94.90;;;;;;5030759;28;20021;-75
2023/04/02 09:17:47;;;;;;;9.38;7.38;;;11.80;94.70;;;;;;5030948;28;20037;-74
2023/04/02 09:20:17;;;;;;;8.05;7.25;;;11.80;94.40;;;;;;5025872;28;20032;-69
2023/04/02 09:22:49;;;;;;;9.75;7.80;;;11.90;94.20;;;;;;5026665;28;20210;-67
2023/04/02 09:25:25;;;;;;;9.25;6.53;;;11.90;94.40;;;;;;5031048;28;20014;-66
2023/04/02 09:27:54;;;;;;;10.95;7.10;;;11.80;95.10;;;;;;5031111;28;20025;-74
2023/04/02 09:30:28;;;;;;;7.78;6.97;;;11.90;94.60;;;;;;5031044;28;20100;-69
2023/04/02 09:33:01;;;;;;;7.97;7.13;;;11.90;94.80;;;;;;5032893;28;20021;-67
2023/04/02 09:35:35;;;;;;;9.65;6.78;;;11.90;93.70;;;;;;5031497;28;20487;-68
2023/04/02 09:38:29;;;;;;;9.55;6.05;;;11.90;94.60;;;;;;5026021;28;20438;-68
2023/04/02 09:41:18;;;;;;;10.13;6.50;;;12.00;94.30;;;;;;5019025;28;20038;-67
2023/04/02 09:43:43;;;;;;;8.48;5.88;;;12.00;94.30;;;;;;5024982;28;20017;-70
2023/04/02 09:46:12;;;;;;;7.15;6.18;;;11.90;94.30;;;;;;5029777;28;20029;-69
2023/04/02 09:48:45;;;;;;;8.52;7.05;;;12.00;94.50;;;;;;5037390;28;20029;-70
2023/04/02 09:51:16;;;;;;;9.30;7.00;;;12.00;94.50;;;;;;5029161;28;20064;-74
2023/04/02 09:53:48;;;;;;;7.47;5.68;;;12.10;94.30;;;;;;5046723;28;20371;-74
2023/04/02 09:56:25;;;;;;;8.93;6.20;;;12.00;93.90;;;;;;5030796;28;20034;-67
2023/04/02 09:59:15;;;;;;;8.45;6.07;;;12.10;94.20;;;;;;5030315;28;20022;-69
2023/04/02 10:01:49;;;;;;;7.40;5.85;;;12.10;94.20;;;;;;5031905;28;20025;-66
2023/04/02 10:04:35;;;;;;;7.50;5.00;;;12.10;93.60;;;;;;5028559;28;20032;-68
2023/04/02 10:07:01;;;;;;;9.18;5.80;;;12.10;94.40;;;;;;5030232;28;20029;-67
2023/04/02 10:09:31;;;;;;;7.72;6.65;;;12.10;93.70;;;;;;5025767;28;20497;-70
2023/04/02 10:11:58;;;;;;;13.68;8.20;;;12.10;93.40;;;;;;5011585;28;20025;-67
2023/04/02 10:14:38;;;;;;;8.60;7.32;;;12.10;93.40;;;;;;5029022;28;20034;-72
2023/04/02 10:17:27;;;;;;;9.23;6.47;;;12.20;93.40;;;;;;5030128;28;20096;-72
2023/04/02 10:19:57;;;;;;;9.10;7.10;;;12.20;93.10;;;;;;5030994;28;20390;-68
2023/04/02 10:22:23;;;;;;;7.10;4.75;;;12.20;93.20;;;;;;5030586;28;20382;-75
2023/04/02 10:24:50;;;;;;;6.63;5.35;;;12.20;93.30;;;;;;5029225;28;20021;-75
2023/04/02 10:27:51;;;;;;;7.70;5.57;;;12.10;93.60;;;;;;5028257;28;20035;-71
2023/04/02 10:30:24;;;;;;;9.18;6.57;;;12.20;94.60;;;;;;5018134;28;20041;-69
2023/04/02 10:33:01;;;;;;;11.52;7.45;;;12.20;93.30;;;;;;5033233;28;20386;-74
2023/04/02 10:35:42;;;;;;;9.60;6.43;;;12.30;92.50;;;;;;5036152;28;20021;-66
2023/04/02 10:38:37;;;;;;;9.30;6.38;;;12.20;92.40;;;;;;5028495;28;20108;-69
2023/04/02 10:41:42;;;;;;;9.65;6.75;;;12.10;92.50;;;;;;5044191;28;20021;-65
2023/04/02 10:44:20;;;;;;;8.27;4.70;;;12.20;92.80;;;;;;4966547;28;20035;-70
2023/04/02 10:47:12;;;;;;;9.45;6.25;;;12.20;93.00;;;;;;4967893;28;20167;-70
2023/04/02 10:49:45;;;;;;;7.47;4.95;;;12.20;92.80;;;;;;4998230;28;20057;-74
2023/04/02 10:52:22;;;;;;;7.03;5.10;;;12.20;92.30;;;;;;5018520;28;20048;-74
2023/04/02 10:54:49;;;;;;;11.27;7.28;;;12.20;92.70;;;;;;5028421;28;20382;-74
2023/04/02 10:57:26;;;;;;;6.43;5.10;;;12.30;92.50;;;;;;5022595;28;20439;-73
2023/04/02 10:59:59;;;;;;;6.00;4.72;;;12.30;92.40;;;;;;5030145;28;20483;-73
2023/04/02 11:02:51;;;;;;;7.82;4.32;;;12.30;92.70;;;;;;5033991;28;20033;-66
2023/04/02 11:05:36;;;;;;;;;;;12.30;93.10;;;;;;5034240;28;20391;-67
2023/04/02 11:08:25;;;;;;;9.18;5.68;;;12.40;92.40;;;;;;5034383;28;19912;-73
2023/04/02 11:11:09;;;;;;;7.07;5.13;;;12.30;92.60;;;;;;5034142;28;20067;-73
2023/04/02 11:13:56;;;;;;;10.05;4.95;;;12.30;92.70;;;;;;5034349;28;20114;-73
2023/04/02 11:16:22;;;;;;;4.93;4.13;;;12.30;93.20;;;;;;5032663;28;20025;-74
2023/04/02 11:19:08;;;;;;;9.48;7.93;;;12.30;93.40;;;;;;5033532;28;20013;-65
2023/04/02 11:21:37;;;;;;;8.85;6.18;;;12.40;92.40;;;;;;5024711;28;20041;-68
2023/04/02 11:24:03;;;;;;;9.52;6.30;;;12.40;92.00;;;;;;5034269;28;20025;-66
2023/04/02 11:26:41;;;;;;;10.07;7.05;;;12.40;92.40;;;;;;5028277;28;20030;-66
2023/04/02 11:29:12;;;;;;;15.00;11.25;;;12.40;92.40;;;;;;5026398;28;20030;-66
2023/04/02 11:31:38;;;;;;;10.43;8.83;;;12.40;92.10;;;;;;5031845;28;20021;-66
2023/04/02 11:34:04;;;;;;;9.10;5.30;;;12.40;92.40;;;;;;5033841;28;20104;-66
2023/04/02 11:36:49;;;;;;;7.68;6.10;;;12.40;92.30;;;;;;5031939;28;20021;-67
2023/04/02 11:39:55;;;;;;;8.48;6.53;;;12.50;91.90;;;;;;5032501;28;20029;-73
2023/04/02 11:42:30;;;;;;;7.40;6.10;;;12.50;91.40;;;;;;5033365;28;20022;-66
2023/04/02 11:44:59;;;;;;;9.95;5.97;;;12.40;92.20;;;;;;5032868;28;20025;-66
2023/04/02 11:47:27;;;;;;;8.13;5.63;;;12.50;92.10;;;;;;5032200;28;20473;-66
2023/04/02 11:49:59;;;;;;;5.03;4.53;;;12.50;92.00;;;;;;5033342;28;20038;-68
2023/04/02 11:52:48;;;;;;;6.47;4.15;;;12.50;91.70;;;;;;5032219;28;20417;-65
2023/04/02 11:55:24;;;;;;;10.50;7.70;;;12.50;92.10;;;;;;5032554;28;20397;-68
2023/04/02 11:57:58;;;;;;;10.25;7.40;;;12.50;91.60;;;;;;5032865;28;20021;-69
2023/04/02 12:00:51;;;;;;;6.65;4.65;;;12.50;91.30;;;;;;5033242;28;20061;-66
2023/04/02 12:03:28;;;;;;;6.15;4.43;;;12.40;91.70;;;;;;5032917;28;20112;-65
2023/04/02 12:06:05;;;;;;;5.57;4.65;;;12.50;91.90;;;;;;5031913;28;20494;-65
2023/04/02 12:08:56;;;;;;;6.78;4.82;;;12.60;92.00;;;;;;5032209;28;20032;-67
2023/04/02 12:11:49;;;;;;;7.07;6.38;;;12.50;91.00;;;;;;5033295;28;20037;-67
2023/04/02 12:14:36;;;;;;;6.80;6.03;;;12.40;91.40;;;;;;5016985;28;20041;-66
2023/04/02 12:17:03;;;;;;;8.07;6.45;;;12.40;91.40;;;;;;5031316;28;20403;-66
2023/04/02 12:19:30;;;;;;;7.85;7.15;;;12.50;91.60;;;;;;5032031;28;20545;-67
2023/04/02 12:21:58;;;;;;;6.85;5.65;;;12.50;91.30;;;;;;5032479;28;20481;-67
2023/04/02 12:24:30;;;;;;;7.45;4.80;;;12.50;91.50;;;;;;5028005;28;20060;-75
2023/04/02 12:27:21;;;;;;;3.20;2.90;;;12.50;91.80;;;;;;5031235;28;20111;-66
2023/04/02 12:29:48;;;;;;;6.25;4.72;;;12.50;91.80;;;;;;5029975;28;20033;-67
2023/04/02 12:32:26;;;;;;;5.88;4.72;;;12.60;91.50;;;;;;5024150;28;20038;-66
2023/04/02 12:34:53;;;;;;;10.18;6.82;;;12.50;91.40;;;;;;5025387;28;20501;-67
2023/04/02 12:37:27;;;;;;;7.22;5.43;;;12.50;91.40;;;;;;5028427;28;20053;-70
2023/04/02 12:39:58;;;;;;;6.68;6.07;;;12.60;91.50;;;;;;5027813;28;20025;-68
2023/04/02 12:42:32;;;;;;;7.82;7.13;;;12.50;91.20;;;;;;5024183;28;20418;-67
2023/04/02 12:44:58;;;;;;;7.60;6.82;;;12.50;91.20;;;;;;5029924;28;20029;-68
2023/04/02 12:47:24;;;;;;;8.45;6.55;;;12.40;91.40;;;;;;5027616;28;20037;-68
2023/04/02 12:49:51;;;;;;;5.22;4.72;;;12.40;91.30;;;;;;5025830;28;20438;-67
2023/04/02 12:52:23;;;;;;;5.65;4.43;;;12.40;91.40;;;;;;5024843;28;20674;-68
2023/04/02 12:54:50;;;;;;;;;;;12.40;91.60;;;;;;5029675;28;20021;-68
2023/04/02 12:57:28;;;;;;;7.05;5.25;;;12.50;91.60;;;;;;5028839;28;19913;-68
2023/04/02 13:00:21;;;;;;;7.28;5.22;;;12.50;91.30;;;;;;5028927;28;20117;-70
2023/04/02 13:02:58;;;;;;;8.45;5.43;;;12.30;91.20;;;;;;5024963;28;20108;-69
2023/04/02 13:05:44;;;;;;;6.72;5.63;;;12.30;91.50;;;;;;5027369;28;20029;-69
2023/04/02 13:08:21;;;;;;;5.35;4.82;;;12.40;91.40;;;;;;5029326;28;20108;-69
2023/04/02 13:11:01;;;;;;;6.05;5.53;;;12.30;91.50;;;;;;5030137;28;20544;-69
2023/04/02 13:13:38;;;;;;;8.32;7.13;;;12.30;91.30;;;;;;5026264;28;20075;-76
2023/04/02 13:16:18;;;;;;;7.85;6.38;;;12.40;91.30;;;;;;5032497;28;20021;-68
2023/04/02 13:18:46;;;;;;;6.75;5.50;;;12.30;91.20;;;;;;5024223;28;20061;-73
2023/04/02 13:21:15;;;;;;;9.90;5.82;;;12.40;91.50;;;;;;5019899;28;20026;-74